Time;durP1;ratioP1;P1;durP2;ratioP2;P2;SDS_P1;SDS_P2;PMS_P1;PMS_P2;Temp;Humidity;BMP_temperature;BMP_pressure;BME280_temperature;BME280_humidity;BME280_pressure;Samples;Min_cycle;Max_cycle;Signal;HPM_P1;HPM_P2
2024/01/29 00:00:57;;;;;;;7.63;4.82;;;;;;;2.99;100.00;102608.59;10229098;28;20041;-71
2024/01/29 00:05:53;;;;;;;7.90;5.00;;;;;;;3.01;100.00;102606.50;10221545;28;20051;-71
2024/01/29 00:10:50;;;;;;;9.40;5.72;;;;;;;3.06;100.00;102609.34;10228363;28;20087;-70
2024/01/29 00:15:46;;;;;;;11.07;5.78;;;;;;;3.10;100.00;102588.97;10226679;28;20578;-70
2024/01/29 00:20:43;;;;;;;7.18;5.25;;;;;;;3.13;100.00;102587.69;10226771;28;20063;-70
2024/01/29 00:25:39;;;;;;;8.23;5.05;;;;;;;3.12;100.00;102603.09;10221363;28;20524;-70
2024/01/29 00:30:36;;;;;;;8.15;4.85;;;;;;;3.16;100.00;102587.25;10224300;28;20391;-72
2024/01/29 00:35:33;;;;;;;9.77;5.30;;;;;;;3.17;100.00;102588.91;10227715;28;20140;-73
2024/01/29 00:40:31;;;;;;;5.82;4.65;;;;;;;3.22;100.00;102585.53;10226493;28;20599;-73
2024/01/29 00:45:28;;;;;;;6.53;5.00;;;;;;;3.22;100.00;102569.31;10223804;28;20521;-73
2024/01/29 00:50:25;;;;;;;5.88;4.43;;;;;;;3.24;100.00;102556.41;10229509;28;20041;-72
2024/01/29 00:55:21;;;;;;;7.72;4.63;;;;;;;3.25;100.00;102558.03;10226206;28;20399;-72
2024/01/29 01:00:18;;;;;;;7.95;4.28;;;;;;;3.30;100.00;102552.81;10234613;28;20049;-72
2024/01/29 01:05:14;;;;;;;7.35;4.47;;;;;;;3.29;100.00;102546.56;10226729;28;20042;-72
2024/01/29 01:10:11;;;;;;;7.10;4.68;;;;;;;3.33;100.00;102555.06;10230489;28;20041;-71
2024/01/29 01:15:08;;;;;;;9.88;5.00;;;;;;;3.34;100.00;102551.28;10234434;28;20045;-71
2024/01/29 01:20:06;;;;;;;5.88;4.05;;;;;;;3.35;100.00;102542.16;10233326;28;20038;-72
2024/01/29 01:25:03;;;;;;;8.13;4.50;;;;;;;3.34;100.00;102540.47;10232095;28;20132;-72
2024/01/29 01:30:00;;;;;;;9.15;4.18;;;;;;;3.37;100.00;102545.47;10235293;28;20057;-71
2024/01/29 01:34:57;;;;;;;5.93;3.90;;;;;;;3.38;100.00;102536.28;10233547;28;21046;-71
2024/01/29 01:39:53;;;;;;;7.35;3.85;;;;;;;3.27;100.00;102539.72;10234470;28;20136;-71
2024/01/29 01:44:50;;;;;;;6.30;4.30;;;;;;;3.18;100.00;102550.03;10226747;28;20049;-71
2024/01/29 01:49:47;;;;;;;7.88;4.50;;;;;;;3.14;100.00;102552.34;10233919;28;20044;-71
2024/01/29 01:54:44;;;;;;;8.40;4.45;;;;;;;3.06;100.00;102560.72;10226295;28;20072;-71
2024/01/29 01:59:40;;;;;;;9.25;4.40;;;;;;;2.93;100.00;102561.69;10237828;28;20100;-71
2024/01/29 02:04:39;;;;;;;6.35;4.03;;;;;;;2.82;100.00;102564.28;11084302;23;20039;-75
2024/01/29 02:09:58;;;;;;;4.88;3.97;;;;;;;2.76;100.00;102581.34;10159489;28;20057;-72
2024/01/29 02:15:00;;;;;;;6.30;4.43;;;;;;;2.63;100.00;102583.09;10171325;28;20137;-75
2024/01/29 02:19:56;;;;;;;7.60;4.35;;;;;;;2.55;100.00;102586.06;10190494;28;20048;-71
2024/01/29 02:24:53;;;;;;;6.25;4.55;;;;;;;2.54;100.00;102573.63;10173216;28;20100;-71
2024/01/29 02:29:50;;;;;;;7.70;4.70;;;;;;;2.48;100.00;102558.28;10175108;28;20063;-71
2024/01/29 02:34:48;;;;;;;8.30;4.32;;;;;;;2.37;100.00;102567.06;10176829;28;20185;-71
2024/01/29 02:39:45;;;;;;;5.53;4.38;;;;;;;2.28;100.00;102575.44;10183730;28;20088;-70
2024/01/29 02:44:49;;;;;;;8.18;5.53;;;;;;;2.20;100.00;102586.47;10166732;28;20129;-68
2024/01/29 02:50:03;;;;;;;5.47;4.95;;;;;;;2.09;100.00;102592.59;10156747;28;20053;-69
2024/01/29 02:55:00;;;;;;;8.48;4.95;;;;;;;1.93;100.00;102591.19;10183186;28;20417;-68
2024/01/29 02:59:57;;;;;;;9.68;4.95;;;;;;;1.85;100.00;102592.25;10168093;28;20053;-71
2024/01/29 03:04:54;;;;;;;6.80;5.20;;;;;;;1.80;100.00;102593.94;10176323;28;20376;-71
2024/01/29 03:09:51;;;;;;;6.90;5.22;;;;;;;1.78;100.00;102591.44;10189045;28;20056;-71
2024/01/29 03:14:48;;;;;;;6.05;5.45;;;;;;;1.81;100.00;102593.72;10184964;28;20073;-69
2024/01/29 03:19:45;;;;;;;9.02;5.30;;;;;;;1.84;100.00;102595.16;10176983;28;20046;-70
2024/01/29 03:24:41;;;;;;;7.35;5.25;;;;;;;1.92;100.00;102580.59;10180956;28;20042;-69
2024/01/29 03:29:38;;;;;;;7.45;4.90;;;;;;;2.00;100.00;102581.19;10185048;28;20119;-68
2024/01/29 03:34:34;;;;;;;7.07;4.20;;;;;;;2.01;100.00;102568.53;10176283;28;20112;-69
2024/01/29 03:39:31;;;;;;;7.00;5.32;;;;;;;2.00;100.00;102569.59;10177773;28;20094;-71
2024/01/29 03:44:27;;;;;;;4.63;4.22;;;;;;;2.00;100.00;102572.28;10174821;28;20056;-71
2024/01/29 03:49:24;;;;;;;5.55;4.25;;;;;;;1.97;100.00;102562.72;10179131;28;20046;-69
2024/01/29 03:54:20;;;;;;;5.72;4.18;;;;;;;1.98;100.00;102558.19;10179311;28;20053;-69
2024/01/29 03:59:17;;;;;;;6.05;3.95;;;;;;;1.99;100.00;102554.41;10179643;28;20046;-67
2024/01/29 04:04:13;;;;;;;5.13;4.30;;;;;;;2.05;100.00;102548.19;10172438;28;20077;-70
2024/01/29 04:09:12;;;;;;;6.15;4.03;;;;;;;2.04;100.00;102557.28;10167685;28;20050;-69
2024/01/29 04:14:09;;;;;;;6.53;4.63;;;;;;;2.03;100.00;102539.47;10169808;28;20505;-69
2024/01/29 04:19:05;;;;;;;6.20;4.28;;;;;;;1.93;100.00;102544.47;10168638;28;20464;-69
2024/01/29 04:24:02;;;;;;;7.30;5.00;;;;;;;1.93;100.00;102544.47;10174612;28;20515;-66
2024/01/29 04:28:58;;;;;;;6.05;4.95;;;;;;;1.87;100.00;102547.00;10180731;28;20057;-67
2024/01/29 04:45:57;;;;;;;7.38;5.15;;;;;;;2.02;100.00;102516.22;10134507;28;20046;-70
2024/01/29 04:50:53;;;;;;;7.15;4.65;;;;;;;1.99;100.00;102527.44;10176942;28;20062;-69
2024/01/29 04:55:50;;;;;;;5.70;4.93;;;;;;;2.03;100.00;102528.66;10181482;28;20057;-70
2024/01/29 05:00:47;;;;;;;5.90;5.03;;;;;;;2.02;100.00;102527.00;10185474;28;20563;-71
2024/01/29 05:05:44;;;;;;;6.30;4.80;;;;;;;1.95;100.00;102531.59;10139150;28;20053;-69
2024/01/29 05:10:42;;;;;;;6.75;4.93;;;;;;;1.84;100.00;102539.34;10184330;28;20053;-71
2024/01/29 05:15:38;;;;;;;7.05;4.90;;;;;;;1.82;100.00;102533.34;10163579;28;20048;-71
2024/01/29 05:20:35;;;;;;;5.60;4.95;;;;;;;1.84;100.00;102531.25;10185982;28;20476;-71
2024/01/29 05:25:32;;;;;;;6.13;5.07;;;;;;;1.80;100.00;102531.91;10172504;28;20456;-70
2024/01/29 05:30:29;;;;;;;6.70;5.00;;;;;;;1.74;100.00;102535.44;10184816;28;20540;-72
2024/01/29 05:35:26;;;;;;;5.82;5.13;;;;;;;1.81;100.00;102539.78;10176290;28;20672;-70
2024/01/29 05:40:23;;;;;;;6.65;5.97;;;;;;;1.76;100.00;102539.56;10175701;28;20057;-68
2024/01/29 05:45:20;;;;;;;6.43;5.65;;;;;;;1.72;100.00;102532.97;10182834;28;20072;-71
2024/01/29 05:50:17;;;;;;;7.05;6.30;;;;;;;1.71;100.00;102531.31;10181508;28;20147;-70
2024/01/29 05:55:14;;;;;;;7.10;6.35;;;;;;;1.70;100.00;102518.88;10177135;28;20155;-71
2024/01/29 06:00:12;;;;;;;10.68;5.97;;;;;;;1.73;100.00;102518.44;10177376;28;20046;-70
2024/01/29 06:05:11;;;;;;;7.00;6.00;;;;;;;1.76;100.00;102518.00;10175702;28;20060;-70
2024/01/29 06:10:12;;;;;;;7.57;5.90;;;;;;;1.76;100.00;102507.22;10177234;28;20049;-71
2024/01/29 06:15:09;;;;;;;8.13;6.10;;;;;;;1.81;100.00;102499.31;10175041;28;20038;-70
2024/01/29 06:20:06;;;;;;;6.47;5.88;;;;;;;1.82;100.00;102500.97;10186726;28;20581;-70
2024/01/29 06:25:16;;;;;;;7.05;6.35;;;;;;;1.83;100.00;102491.84;10175673;28;20046;-70
2024/01/29 06:30:14;;;;;;;6.97;6.25;;;;;;;1.83;100.00;102489.16;10183834;28;20104;-70
2024/01/29 06:35:11;;;;;;;6.75;6.10;;;;;;;1.81;100.00;102488.53;10187130;28;20049;-70
2024/01/29 06:40:08;;;;;;;7.03;5.88;;;;;;;1.76;100.00;102491.03;10186795;28;20497;-71
2024/01/29 06:45:09;;;;;;;6.57;5.88;;;;;;;1.74;100.00;102498.53;10183889;28;20690;-71
2024/01/29 06:50:06;;;;;;;7.07;6.32;;;;;;;1.66;100.00;102498.78;10179954;28;20041;-71
2024/01/29 06:55:03;;;;;;;8.45;6.10;;;;;;;1.66;100.00;102506.84;10184939;28;20758;-70
2024/01/29 07:00:00;;;;;;;6.45;5.82;;;;;;;1.67;100.00;102503.09;10184012;28;20498;-71
2024/01/29 07:04:56;;;;;;;6.57;6.00;;;;;;;1.63;100.00;102501.91;10180110;28;20331;-72
2024/01/29 07:09:54;;;;;;;5.90;5.35;;;;;;;1.65;100.00;102499.81;10177753;28;20176;-72
2024/01/29 07:14:53;;;;;;;6.72;5.70;;;;;;;1.66;100.00;102501.47;10172753;28;20544;-71
2024/01/29 07:19:52;;;;;;;6.78;6.03;;;;;;;1.65;100.00;102505.22;10170286;28;20038;-70
2024/01/29 07:24:49;;;;;;;8.60;5.85;;;;;;;1.68;100.00;102510.16;10181637;28;20050;-72
2024/01/29 07:29:46;;;;;;;11.95;6.05;;;;;;;1.71;100.00;102520.53;10174764;28;20108;-72
2024/01/29 07:34:42;;;;;;;8.40;6.40;;;;;;;1.77;100.00;102522.38;10165934;28;20095;-71
2024/01/29 07:39:42;;;;;;;8.32;6.32;;;;;;;1.88;100.00;102520.84;10182115;28;20048;-73
2024/01/29 07:44:40;;;;;;;6.23;5.37;;;;;;;1.95;100.00;102521.66;10172066;28;20046;-70
2024/01/29 07:49:37;;;;;;;6.75;5.75;;;;;;;2.04;100.00;102524.91;10170707;28;20268;-72
2024/01/29 07:54:34;;;;;;;8.57;6.10;;;;;;;2.07;100.00;102535.31;10173540;28;20046;-72
2024/01/29 07:59:30;;;;;;;8.43;5.40;;;;;;;2.13;100.00;102539.00;10174390;28;20051;-69
2024/01/29 08:04:27;;;;;;;7.82;5.20;;;;;;;2.22;100.00;102533.13;10167697;28;20668;-72
2024/01/29 08:09:26;;;;;;;7.10;6.05;;;;;;;2.26;100.00;102545.13;10167759;28;20038;-72
2024/01/29 08:14:23;;;;;;;12.13;6.30;;;;;;;2.24;100.00;102547.22;10170584;28;20429;-71
2024/01/29 08:19:19;;;;;;;9.75;5.80;;;;;;;2.34;100.00;102540.53;10171795;28;20101;-72
2024/01/29 08:24:18;;;;;;;7.07;6.22;;;;;;;2.40;100.00;102550.47;10180622;28;20112;-71
2024/01/29 08:29:14;;;;;;;8.80;5.47;;;;;;;2.44;100.00;102554.38;10178531;28;20052;-73
2024/01/29 08:34:11;;;;;;;7.22;4.95;;;;;;;2.55;100.00;102542.84;10182005;28;20046;-72
2024/01/29 08:39:08;;;;;;;7.80;4.75;;;;;;;2.66;100.00;102531.34;10190131;28;20073;-72
2024/01/29 08:44:06;;;;;;;7.80;4.85;;;;;;;2.73;100.00;102534.81;10179908;28;20052;-71
2024/01/29 08:49:02;;;;;;;7.18;4.90;;;;;;;2.81;100.00;102525.63;10181140;28;20099;-71
2024/01/29 08:53:59;;;;;;;6.85;5.22;;;;;;;2.92;100.00;102532.16;10173284;28;20046;-70
2024/01/29 08:58:57;;;;;;;6.57;4.82;;;;;;;3.05;100.00;102531.22;10186465;28;20124;-69
2024/01/29 09:03:53;;;;;;;6.05;4.93;;;;;;;3.16;100.00;102534.03;10182332;28;20050;-71
2024/01/29 09:08:50;;;;;;;7.75;5.00;;;;;;;3.27;100.00;102537.03;10182082;28;20073;-72
2024/01/29 09:13:47;;;;;;;8.57;5.40;;;;;;;3.47;100.00;102539.53;10182086;28;20073;-72
2024/01/29 09:18:43;;;;;;;6.53;5.05;;;;;;;3.68;100.00;102524.72;10181088;28;20049;-69
2024/01/29 09:23:42;;;;;;;6.28;5.57;;;;;;;3.91;100.00;102524.81;10169750;28;20089;-73
2024/01/29 09:28:43;;;;;;;13.02;5.80;;;;;;;4.07;100.00;102527.94;10186174;28;20041;-71
2024/01/29 09:33:42;;;;;;;6.47;5.20;;;;;;;4.17;100.00;102536.31;10178957;28;20045;-73
2024/01/29 09:38:44;;;;;;;6.97;5.30;;;;;;;4.43;100.00;102533.25;10181180;28;20049;-71
2024/01/29 09:43:46;;;;;;;6.55;5.35;;;;;;;4.53;100.00;102548.09;10181012;28;20046;-68
2024/01/29 09:48:44;;;;;;;5.97;4.85;;;;;;;4.83;100.00;102554.28;10191877;28;20057;-70
2024/01/29 09:53:41;;;;;;;6.38;4.88;;;;;;;5.20;100.00;102564.91;10181484;28;20523;-71
2024/01/29 09:58:38;;;;;;;6.28;5.30;;;;;;;5.39;100.00;102557.44;10176716;28;20050;-69
2024/01/29 10:03:38;;;;;;;6.22;4.60;;;;;;;5.80;100.00;102562.91;10183036;28;20042;-70
2024/01/29 10:08:40;;;;;;;8.40;5.32;;;;;;;6.43;100.00;102567.41;10174314;28;20049;-70
2024/01/29 10:13:37;;;;;;;13.57;5.05;;;;;;;6.92;100.00;102575.03;10173562;28;20100;-72
2024/01/29 10:18:34;;;;;;;8.27;5.10;;;;;;;7.51;100.00;102578.06;10181867;28;20085;-72
2024/01/29 10:23:32;;;;;;;7.53;5.68;;;;;;;7.84;100.00;102570.03;10178022;28;20045;-71
2024/01/29 10:28:29;;;;;;;6.75;5.10;;;;;;;8.27;100.00;102568.34;10170080;28;20046;-70
2024/01/29 10:33:26;;;;;;;5.90;4.78;;;;;;;8.14;100.00;102570.38;10177470;28;20042;-71
2024/01/29 10:38:28;;;;;;;5.93;4.82;;;;;;;8.28;100.00;102568.06;10184640;28;20046;-71
2024/01/29 10:43:47;;;;;;;6.40;5.78;;;;;;;8.37;100.00;102568.44;10180606;28;20042;-70
2024/01/29 10:48:53;;;;;;;7.18;6.13;;;;;;;8.37;100.00;102576.63;10170969;28;20062;-70
2024/01/29 10:53:53;;;;;;;7.88;5.40;;;;;;;8.42;100.00;102574.81;10179125;28;20195;-71
2024/01/29 10:58:57;;;;;;;6.75;5.72;;;;;;;8.29;100.00;102571.63;10174044;28;20050;-68
2024/01/29 11:04:01;;;;;;;5.97;4.90;;;;;;;8.14;100.00;102562.19;10179476;28;20131;-68
2024/01/29 11:09:08;;;;;;;7.38;5.10;;;;;;;8.51;100.00;102560.69;10179055;28;20045;-71
2024/01/29 11:14:08;;;;;;;9.40;5.80;;;;;;;8.50;100.00;102561.78;10176723;28;20084;-73
2024/01/29 11:19:05;;;;;;;7.68;5.70;;;;;;;8.66;100.00;102557.28;10181939;28;20137;-73
2024/01/29 11:24:02;;;;;;;6.82;4.95;;;;;;;8.81;100.00;102551.94;10180578;28;20053;-72
2024/01/29 11:29:03;;;;;;;8.15;5.43;;;;;;;8.67;100.00;102556.19;10177612;28;20218;-72
2024/01/29 11:34:05;;;;;;;11.15;5.22;;;;;;;8.78;100.00;102558.75;10179392;28;20112;-72
2024/01/29 11:39:06;;;;;;;8.20;6.07;;;;;;;9.20;100.00;102559.88;10186079;28;20050;-71
2024/01/29 11:44:08;;;;;;;7.75;6.13;;;;;;;9.41;100.00;102567.09;10178846;28;20045;-70
2024/01/29 11:49:06;;;;;;;9.43;5.60;;;;;;;9.73;100.00;102570.81;10170084;28;20050;-71
2024/01/29 11:54:03;;;;;;;6.80;6.10;;;;;;;9.64;100.00;102575.94;10180631;28;20050;-71
2024/01/29 11:59:03;;;;;;;6.95;5.90;;;;;;;9.82;100.00;102561.00;10176735;28;20449;-72
2024/01/29 12:04:00;;;;;;;11.52;7.25;;;;;;;9.86;100.00;102562.94;10187351;28;20654;-71
2024/01/29 12:08:58;;;;;;;10.32;6.95;;;;;;;9.77;100.00;102564.53;10170306;28;20430;-70
2024/01/29 12:13:56;;;;;;;10.25;6.78;;;;;;;9.87;100.00;102559.09;10180248;28;20523;-71
2024/01/29 12:18:55;;;;;;;6.43;5.72;;;;;;;9.89;100.00;102565.13;10179925;28;20572;-72
2024/01/29 12:23:55;;;;;;;9.55;6.18;;;;;;;10.10;100.00;102556.97;10170217;28;20050;-70
2024/01/29 12:28:52;;;;;;;6.97;6.28;;;;;;;10.32;100.00;102549.38;10180946;28;20042;-72
2024/01/29 12:33:48;;;;;;;8.50;6.35;;;;;;;10.48;100.00;102550.22;10168769;28;20054;-72
2024/01/29 12:38:57;;;;;;;6.97;5.75;;;;;;;10.74;100.00;102550.22;10166394;28;20077;-72
2024/01/29 12:43:56;;;;;;;6.28;5.68;;;;;;;10.71;100.00;102551.59;10173307;28;20050;-71
2024/01/29 12:48:56;;;;;;;6.90;5.72;;;;;;;11.13;100.00;102542.25;10173921;28;20050;-72
2024/01/29 12:53:56;;;;;;;6.80;6.18;;;;;;;11.56;100.00;102534.47;10179644;28;20038;-71
2024/01/29 12:59:12;;;;;;;9.77;5.95;;;;;;;11.95;100.00;102542.00;10183532;28;20129;-68
2024/01/29 13:04:13;;;;;;;7.00;5.53;;;;;;;12.31;100.00;102539.00;10175817;28;20120;-71
2024/01/29 13:09:14;;;;;;;7.78;5.85;;;;;;;12.12;100.00;102546.28;10175083;28;20096;-71
2024/01/29 13:14:15;;;;;;;9.10;6.05;;;;;;;11.70;100.00;102533.88;10165793;28;20695;-71
2024/01/29 13:19:48;;;;;;;8.47;6.10;;;;;;;12.29;100.00;102541.22;10168933;28;20590;-72
2024/01/29 13:25:10;;;;;;;10.50;6.18;;;;;;;11.56;100.00;102550.09;10137483;28;20053;-72
2024/01/29 13:30:24;;;;;;;8.38;6.30;;;;;;;11.71;100.00;102540.97;10142331;28;20157;-72
2024/01/29 13:35:49;;;;;;;8.82;6.70;;;;;;;11.71;100.00;102551.94;10153063;28;20742;-72
2024/01/29 13:41:43;;;;;;;9.85;6.10;;;;;;;11.76;100.00;102543.69;10168227;28;20077;-70
2024/01/29 13:46:55;;;;;;;7.47;6.07;;;;;;;11.44;100.00;102555.88;10156994;28;20046;-70
2024/01/29 13:52:45;;;;;;;8.60;6.20;;;;;;;10.98;100.00;102555.13;10139855;28;20048;-70
2024/01/29 14:09:44;;;;;;;6.72;5.97;;;;;;;10.57;100.00;102555.16;10167194;23;20058;-71
2024/01/29 14:15:04;;;;;;;7.30;6.03;;;;;;;10.68;100.00;102563.09;10103208;28;20035;-71
2024/01/29 14:20:27;;;;;;;17.92;6.65;;;;;;;10.52;100.00;102553.25;10115871;28;20050;-74
2024/01/29 14:25:47;;;;;;;9.73;6.72;;;;;;;10.44;100.00;102561.97;10111740;28;20405;-71
2024/01/29 14:31:41;;;;;;;8.48;6.40;;;;;;;10.20;100.00;102567.94;10096229;28;20216;-74
2024/01/29 14:41:53;;;;;;;11.60;6.50;;;;;;;10.37;100.00;102572.38;10236625;22;20038;-74
2024/01/29 14:46:53;;;;;;;10.18;6.35;;;;;;;10.10;100.00;102567.91;10168388;28;20089;-73
2024/01/29 14:52:04;;;;;;;10.95;6.75;;;;;;;9.86;100.00;102571.13;10159014;28;20185;-71
2024/01/29 14:57:06;;;;;;;13.00;7.00;;;;;;;9.72;100.00;102580.88;10161322;28;20085;-71
2024/01/29 15:02:17;;;;;;;11.30;6.38;;;;;;;9.56;100.00;102590.94;10155136;28;20465;-72
2024/01/29 15:07:26;;;;;;;8.13;6.18;;;;;;;9.41;100.00;102594.38;10153030;28;20060;-73
2024/01/29 15:12:33;;;;;;;8.27;6.32;;;;;;;9.29;100.00;102596.50;10177175;28;20196;-72
2024/01/29 15:23:31;;;;;;;8.68;6.80;;;;;;;9.15;100.00;102595.31;10146220;28;20592;-71
2024/01/29 15:28:46;;;;;;;8.38;6.85;;;;;;;8.99;100.00;102592.47;10138418;28;20678;-73
2024/01/29 15:34:08;;;;;;;11.25;7.22;;;;;;;8.92;100.00;102602.78;10140499;28;20480;-71
2024/01/29 15:39:13;;;;;;;10.00;7.18;;;;;;;8.78;100.00;102607.84;10153356;28;20041;-71
2024/01/29 15:49:43;;;;;;;11.43;7.75;;;;;;;8.67;100.00;102605.28;10089764;28;20263;-74
2024/01/29 15:55:14;;;;;;;10.65;7.57;;;;;;;8.60;100.00;102606.31;10070231;28;20043;-71
2024/01/29 16:00:13;;;;;;;8.82;6.75;;;;;;;8.50;100.00;102602.69;10092875;28;20051;-72
2024/01/29 16:05:09;;;;;;;12.05;7.82;;;;;;;8.32;100.00;102614.72;10084066;23;20766;-72
2024/01/29 16:10:06;;;;;;;11.85;6.72;;;;;;;8.38;100.00;102619.16;10099827;28;20047;-72
2024/01/29 16:15:09;;;;;;;8.05;6.57;;;;;;;8.27;100.00;102611.94;10084019;28;20047;-72
2024/01/29 16:20:17;;;;;;;8.52;7.28;;;;;;;8.16;100.00;102616.44;10077970;28;20061;-72
2024/01/29 16:25:21;;;;;;;8.82;7.25;;;;;;;8.21;100.00;102624.69;10086592;28;20057;-73
2024/01/29 16:30:24;;;;;;;15.77;7.82;;;;;;;8.08;100.00;102631.34;10096479;28;20067;-74
2024/01/29 16:35:36;;;;;;;11.55;7.95;;;;;;;7.98;100.00;102634.78;10081528;28;20047;-72
2024/01/29 16:40:41;;;;;;;11.95;7.90;;;;;;;7.74;100.00;102647.81;10115949;28;20050;-72
2024/01/29 16:45:37;;;;;;;11.27;8.43;;;;;;;7.80;100.00;102651.44;10114862;28;20051;-72
2024/01/29 16:50:35;;;;;;;9.57;8.13;;;;;;;7.55;100.00;102644.53;10120686;28;20047;-73
2024/01/29 16:55:34;;;;;;;9.05;7.97;;;;;;;7.50;100.00;102651.81;10091154;28;20059;-72
2024/01/29 17:00:34;;;;;;;12.07;8.07;;;;;;;7.37;100.00;102651.06;10093519;28;20051;-73
2024/01/29 17:05:32;;;;;;;9.10;8.15;;;;;;;7.33;100.00;102657.25;10098662;28;20048;-74
2024/01/29 17:10:29;;;;;;;8.68;7.60;;;;;;;7.18;100.00;102660.56;10115347;28;20449;-73
2024/01/29 17:15:39;;;;;;;13.48;8.00;;;;;;;7.04;100.00;102653.81;10085082;28;22710;-70
2024/01/29 17:20:40;;;;;;;11.27;8.35;;;;;;;6.98;100.00;102679.28;10067707;28;20051;-74
2024/01/29 17:25:37;;;;;;;8.63;7.80;;;;;;;6.85;100.00;102678.53;10078720;28;20055;-72
2024/01/29 17:31:03;;;;;;;8.80;7.50;;;;;;;6.72;100.00;102689.69;10085078;28;20058;-74
2024/01/29 17:36:34;;;;;;;9.30;8.37;;;;;;;6.67;100.00;102684.97;10077657;23;20487;-69
2024/01/29 17:41:32;;;;;;;12.52;9.45;;;;;;;6.58;100.00;102694.59;11054940;23;20127;-76
2024/01/29 17:46:31;;;;;;;10.80;8.70;;;;;;;6.56;100.00;102695.91;10209380;28;20064;-74
2024/01/29 17:51:33;;;;;;;14.80;9.13;;;;;;;6.48;100.00;102695.22;10218888;28;20041;-74
2024/01/29 17:56:35;;;;;;;12.80;9.30;;;;;;;6.41;100.00;102694.53;10220848;22;20051;-73
2024/01/29 18:01:32;;;;;;;13.38;8.30;;;;;;;6.36;100.00;102697.16;10110407;28;20062;-73
2024/01/29 18:06:28;;;;;;;14.18;9.38;;;;;;;6.28;100.00;102692.09;10106556;28;20076;-73
2024/01/29 18:11:25;;;;;;;10.95;8.90;;;;;;;6.26;100.00;102707.81;10124929;28;20078;-73
2024/01/29 18:16:23;;;;;;;11.32;9.60;;;;;;;6.42;100.00;102707.06;10099454;28;20058;-74
2024/01/29 18:21:19;;;;;;;12.70;9.07;;;;;;;6.63;100.00;102708.28;10094104;28;20043;-73
2024/01/29 18:26:16;;;;;;;11.23;9.27;;;;;;;6.79;100.00;102712.13;10101452;28;20051;-74
2024/01/29 18:31:18;;;;;;;10.18;8.52;;;;;;;6.89;100.00;102704.16;10110439;28;20113;-73
2024/01/29 18:36:17;;;;;;;12.27;9.23;;;;;;;6.88;100.00;102698.94;10110673;28;20098;-77
2024/01/29 18:41:17;;;;;;;14.68;9.38;;;;;;;6.87;100.00;102706.28;10103740;28;20053;-72
2024/01/29 18:46:15;;;;;;;10.27;9.32;;;;;;;6.84;100.00;102709.47;10112329;28;20055;-72
2024/01/29 18:51:12;;;;;;;12.77;9.57;;;;;;;6.71;100.00;102715.25;10107467;28;20050;-72
2024/01/29 18:56:09;;;;;;;10.07;9.07;;;;;;;6.61;100.00;102717.75;10103965;28;20578;-73
2024/01/29 19:01:05;;;;;;;12.32;9.68;;;;;;;6.49;100.00;102713.16;10104889;28;20490;-73
2024/01/29 19:06:02;;;;;;;11.77;10.57;;;;;;;6.40;100.00;102725.47;10096422;28;20086;-75
2024/01/29 19:10:59;;;;;;;11.45;9.90;;;;;;;6.32;100.00;102734.03;10090099;28;20892;-74
2024/01/29 19:15:55;;;;;;;11.68;10.00;;;;;;;6.18;100.00;102738.06;10108551;28;20049;-74
2024/01/29 19:20:54;;;;;;;16.63;10.98;;;;;;;6.06;100.00;102736.19;10103309;28;20506;-74
2024/01/29 19:25:52;;;;;;;13.05;11.75;;;;;;;5.99;100.00;102743.63;10105999;28;20054;-72
2024/01/29 19:30:49;;;;;;;14.52;11.88;;;;;;;5.91;100.00;102743.94;10103264;28;20043;-72
2024/01/29 19:35:48;;;;;;;15.15;11.98;;;;;;;5.75;100.00;102744.66;10106793;28;20130;-74
2024/01/29 19:40:45;;;;;;;15.23;12.18;;;;;;;5.65;100.00;102745.25;10111247;28;20048;-73
2024/01/29 19:45:41;;;;;;;13.93;12.43;;;;;;;5.61;100.00;102746.78;10107713;28;20055;-72
2024/01/29 19:50:37;;;;;;;15.18;13.68;;;;;;;5.48;100.00;102740.53;10107667;28;20104;-71
2024/01/29 19:55:34;;;;;;;17.85;13.32;;;;;;;5.40;100.00;102742.75;10096978;28;20505;-72
2024/01/29 20:00:31;;;;;;;15.48;13.30;;;;;;;5.37;100.00;102751.34;10112649;28;20069;-71
2024/01/29 20:05:28;;;;;;;15.73;14.13;;;;;;;5.31;100.00;102755.81;10099139;28;20046;-71
2024/01/29 20:10:24;;;;;;;17.13;15.45;;;;;;;5.22;100.00;102741.78;10107637;28;20051;-72
2024/01/29 20:15:21;;;;;;;20.67;16.67;;;;;;;5.19;100.00;102747.63;10091268;28;20049;-71
2024/01/29 20:20:17;;;;;;;16.38;14.75;;;;;;;5.14;100.00;102752.94;10095871;28;20462;-72
2024/01/29 20:25:14;;;;;;;18.80;16.80;;;;;;;5.06;100.00;102750.56;10089868;28;20083;-73
2024/01/29 20:30:12;;;;;;;18.25;16.40;;;;;;;5.10;100.00;102746.31;10104014;28;20070;-69
2024/01/29 20:35:10;;;;;;;20.40;18.40;;;;;;;5.01;100.00;102745.00;10108611;28;20054;-70
2024/01/29 20:40:07;;;;;;;18.55;16.65;;;;;;;5.03;100.00;102742.88;10102097;28;20050;-71
2024/01/29 20:45:04;;;;;;;22.55;16.85;;;;;;;4.99;100.00;102752.53;10097263;28;20057;-71
2024/01/29 20:50:03;;;;;;;17.70;15.98;;;;;;;4.90;100.00;102753.91;10102975;28;20053;-73
2024/01/29 20:55:00;;;;;;;18.45;16.77;;;;;;;4.89;100.00;102752.25;10092821;28;20414;-72
2024/01/29 21:00:11;;;;;;;18.00;15.98;;;;;;;4.89;100.00;102752.25;10098154;28;20725;-72
2024/01/29 21:05:10;;;;;;;19.50;17.48;;;;;;;4.84;100.00;102745.63;10102302;28;20047;-70
2024/01/29 21:10:07;;;;;;;20.52;18.10;;;;;;;4.84;100.00;102745.63;10093269;28;20105;-70
2024/01/29 21:15:04;;;;;;;20.67;18.42;;;;;;;4.87;100.00;102748.94;10105322;28;20042;-72
2024/01/29 21:20:01;;;;;;;21.98;18.92;;;;;;;4.80;100.00;102755.31;10109512;28;20043;-71
2024/01/29 21:24:57;;;;;;;31.88;21.00;;;;;;;4.79;100.00;102753.63;10098039;28;20051;-72
2024/01/29 21:29:54;;;;;;;25.70;19.90;;;;;;;4.83;100.00;102754.84;10119055;28;20077;-71
2024/01/29 21:34:50;;;;;;;24.30;19.20;;;;;;;4.78;100.00;102752.00;10088283;28;20450;-71
2024/01/29 21:39:47;;;;;;;22.70;18.02;;;;;;;4.79;100.00;102748.22;10105674;28;20046;-72
2024/01/29 21:44:46;;;;;;;20.38;17.70;;;;;;;4.77;100.00;102749.50;10110729;28;20050;-72
2024/01/29 21:49:42;;;;;;;21.00;18.75;;;;;;;4.72;100.00;102750.19;10110655;28;20299;-71
2024/01/29 21:54:39;;;;;;;20.40;18.50;;;;;;;4.66;100.00;102742.97;10105611;28;20133;-71
2024/01/29 21:59:35;;;;;;;20.20;18.00;;;;;;;4.66;100.00;102748.38;10110123;28;20049;-71
2024/01/29 22:04:35;;;;;;;20.83;18.85;;;;;;;4.59;100.00;102736.81;10104289;28;20492;-72
2024/01/29 22:09:31;;;;;;;20.23;18.25;;;;;;;4.55;100.00;102730.19;10101296;28;20043;-71
2024/01/29 22:14:28;;;;;;;20.23;18.08;;;;;;;4.53;100.00;102735.03;10103849;28;20077;-71
2024/01/29 22:19:25;;;;;;;21.45;19.30;;;;;;;4.42;100.00;102737.44;10105061;28;20051;-70
2024/01/29 22:24:21;;;;;;;20.13;18.38;;;;;;;4.38;100.00;102741.63;10102021;28;20049;-70
2024/01/29 22:29:18;;;;;;;21.92;18.77;;;;;;;4.29;100.00;102737.56;10105869;28;20414;-70
2024/01/29 22:34:16;;;;;;;21.13;19.30;;;;;;;4.24;100.00;102739.31;10107900;28;20043;-69
2024/01/29 22:39:12;;;;;;;21.42;19.35;;;;;;;4.22;100.00;102747.66;10105112;28;20043;-70
2024/01/29 22:44:09;;;;;;;21.40;19.50;;;;;;;4.14;100.00;102756.09;10098665;28;20062;-70
2024/01/29 22:49:05;;;;;;;22.05;20.02;;;;;;;4.13;100.00;102743.59;10104258;28;20049;-72
2024/01/29 22:54:02;;;;;;;21.40;19.50;;;;;;;4.16;100.00;102748.56;10106426;28;20043;-70
2024/01/29 22:58:59;;;;;;;21.35;19.30;;;;;;;4.05;100.00;102757.44;10111148;28;20562;-71
2024/01/29 23:03:56;;;;;;;21.80;19.95;;;;;;;4.03;100.00;102749.53;10108633;28;20651;-70
2024/01/29 23:08:52;;;;;;;22.17;20.20;;;;;;;3.97;100.00;102762.09;10107332;28;20074;-69
2024/01/29 23:13:49;;;;;;;23.98;20.67;;;;;;;3.99;100.00;102754.59;10104506;28;20047;-69
2024/01/29 23:18:45;;;;;;;22.60;20.60;;;;;;;3.99;100.00;102756.44;10100576;28;20062;-69
2024/01/29 23:23:42;;;;;;;22.40;20.27;;;;;;;3.93;100.00;102760.88;10116184;28;20127;-69
2024/01/29 23:28:38;;;;;;;21.27;19.40;;;;;;;3.99;100.00;102751.88;10095737;28;20462;-69